sensor_id;sensor_type;location;lat;lon;timestamp;pressure;altitude;pressure_sealevel;temperature;humidity
59315;BME280;46521;50.160;20.802;2023-02-04T00:13:18;98809.98;;;0.52;86.79
59315;BME280;46521;50.160;20.802;2023-02-04T00:23:20;98795.05;;;0.54;86.83
59315;BME280;46521;50.160;20.802;2023-02-04T00:33:21;98803.83;;;0.53;86.71
59315;BME280;46521;50.160;20.802;2023-02-04T00:43:23;98802.42;;;0.49;86.74
59315;BME280;46521;50.160;20.802;2023-02-04T00:53:24;98793.80;;;0.49;86.86
59315;BME280;46521;50.160;20.802;2023-02-04T01:03:25;98791.32;;;0.47;86.93
59315;BME280;46521;50.160;20.802;2023-02-04T01:13:27;98778.69;;;0.43;86.78
59315;BME280;46521;50.160;20.802;2023-02-04T01:23:28;98773.73;;;0.40;86.87
59315;BME280;46521;50.160;20.802;2023-02-04T01:33:30;98771.82;;;0.42;86.88
59315;BME280;46521;50.160;20.802;2023-02-04T01:43:32;98755.72;;;0.48;87.45
59315;BME280;46521;50.160;20.802;2023-02-04T01:53:34;98759.60;;;0.53;87.58
59315;BME280;46521;50.160;20.802;2023-02-04T02:03:36;98761.95;;;0.57;87.48
59315;BME280;46521;50.160;20.802;2023-02-04T02:13:38;98761.48;;;0.51;87.19
59315;BME280;46521;50.160;20.802;2023-02-04T02:23:48;98760.10;;;0.47;87.20
59315;BME280;46521;50.160;20.802;2023-02-04T02:33:50;98760.60;;;0.41;87.52
59315;BME280;46521;50.160;20.802;2023-02-04T02:43:52;98769.34;;;0.40;87.68
59315;BME280;46521;50.160;20.802;2023-02-04T02:53:53;98767.69;;;0.39;87.93
59315;BME280;46521;50.160;20.802;2023-02-04T03:03:55;98777.15;;;0.40;87.80
59315;BME280;46521;50.160;20.802;2023-02-04T03:13:57;98793.92;;;0.47;87.74
59315;BME280;46521;50.160;20.802;2023-02-04T03:24:01;98800.75;;;0.48;87.91
59315;BME280;46521;50.160;20.802;2023-02-04T03:34:03;98812.38;;;0.44;87.60
59315;BME280;46521;50.160;20.802;2023-02-04T03:44:04;98839.33;;;0.43;87.54
59315;BME280;46521;50.160;20.802;2023-02-04T03:54:06;98855.31;;;0.39;87.47
59315;BME280;46521;50.160;20.802;2023-02-04T04:04:07;98900.71;;;0.34;87.45
59315;BME280;46521;50.160;20.802;2023-02-04T04:14:09;98956.06;;;0.14;87.28
59315;BME280;46521;50.160;20.802;2023-02-04T04:24:10;98999.09;;;-0.05;86.93
59315;BME280;46521;50.160;20.802;2023-02-04T04:34:12;99038.25;;;-0.30;86.71
59315;BME280;46521;50.160;20.802;2023-02-04T04:44:14;99080.13;;;-0.46;86.52
59315;BME280;46521;50.160;20.802;2023-02-04T04:54:15;99119.97;;;-0.59;86.38
59315;BME280;46521;50.160;20.802;2023-02-04T05:04:17;99183.59;;;-0.77;86.41
59315;BME280;46521;50.160;20.802;2023-02-04T05:14:18;99241.05;;;-0.95;86.23
59315;BME280;46521;50.160;20.802;2023-02-04T05:24:20;99305.02;;;-1.06;86.62
59315;BME280;46521;50.160;20.802;2023-02-04T05:34:21;99373.60;;;-1.23;86.44
59315;BME280;46521;50.160;20.802;2023-02-04T05:44:23;99422.96;;;-1.38;86.76
59315;BME280;46521;50.160;20.802;2023-02-04T05:54:24;99492.63;;;-1.46;85.88
59315;BME280;46521;50.160;20.802;2023-02-04T06:04:26;99540.27;;;-1.47;86.09
59315;BME280;46521;50.160;20.802;2023-02-04T06:14:27;99607.03;;;-1.51;85.86
59315;BME280;46521;50.160;20.802;2023-02-04T06:24:29;99650.30;;;-1.51;85.47
59315;BME280;46521;50.160;20.802;2023-02-04T06:34:30;99721.25;;;-1.52;85.49
59315;BME280;46521;50.160;20.802;2023-02-04T06:44:32;99780.17;;;-1.54;84.53
59315;BME280;46521;50.160;20.802;2023-02-04T06:54:33;99832.62;;;-1.49;84.28
59315;BME280;46521;50.160;20.802;2023-02-04T07:04:35;99888.03;;;-1.50;84.27
59315;BME280;46521;50.160;20.802;2023-02-04T07:14:36;99930.11;;;-1.45;83.33
59315;BME280;46521;50.160;20.802;2023-02-04T07:24:38;99999.58;;;-1.50;83.50
59315;BME280;46521;50.160;20.802;2023-02-04T07:34:39;100048.41;;;-1.58;83.68
59315;BME280;46521;50.160;20.802;2023-02-04T07:44:41;100109.52;;;-1.53;82.79
59315;BME280;46521;50.160;20.802;2023-02-04T07:54:43;100149.41;;;-1.38;82.76
59315;BME280;46521;50.160;20.802;2023-02-04T08:04:44;100179.21;;;-1.29;82.19
59315;BME280;46521;50.160;20.802;2023-02-04T08:14:46;100218.22;;;-1.31;81.92
59315;BME280;46521;50.160;20.802;2023-02-04T08:24:47;100253.38;;;-1.07;81.67
59315;BME280;46521;50.160;20.802;2023-02-04T08:34:49;100283.36;;;-0.84;81.43
59315;BME280;46521;50.160;20.802;2023-02-04T08:44:50;100303.19;;;-0.66;80.87
59315;BME280;46521;50.160;20.802;2023-02-04T08:54:52;100319.73;;;-0.35;80.69
59315;BME280;46521;50.160;20.802;2023-02-04T09:04:53;100346.31;;;-0.30;80.31
59315;BME280;46521;50.160;20.802;2023-02-04T09:14:55;100374.89;;;0.04;80.25
59315;BME280;46521;50.160;20.802;2023-02-04T09:24:56;100398.06;;;0.24;79.83
59315;BME280;46521;50.160;20.802;2023-02-04T09:34:58;100414.52;;;-0.25;79.57
59315;BME280;46521;50.160;20.802;2023-02-04T09:44:59;100428.74;;;-0.32;79.86
59315;BME280;46521;50.160;20.802;2023-02-04T09:55:08;100447.61;;;-0.11;79.89
59315;BME280;46521;50.160;20.802;2023-02-04T10:05:15;100477.59;;;0.12;79.70
59315;BME280;46521;50.160;20.802;2023-02-04T10:15:18;100498.39;;;0.12;79.02
59315;BME280;46521;50.160;20.802;2023-02-04T10:25:23;100520.48;;;-0.12;79.54
59315;BME280;46521;50.160;20.802;2023-02-04T10:35:25;100525.53;;;-0.09;79.72
59315;BME280;46521;50.160;20.802;2023-02-04T10:45:28;100542.66;;;-0.40;79.46
59315;BME280;46521;50.160;20.802;2023-02-04T10:55:30;100555.95;;;-0.46;79.73
59315;BME280;46521;50.160;20.802;2023-02-04T11:05:33;100550.98;;;-0.16;79.29
59315;BME280;46521;50.160;20.802;2023-02-04T11:26:36;100570.64;;;-0.10;78.00
59315;BME280;46521;50.160;20.802;2023-02-04T11:47:06;100601.84;;;-0.10;77.42
59315;BME280;46521;50.160;20.802;2023-02-04T11:57:10;100603.38;;;0.11;76.10
59315;BME280;46521;50.160;20.802;2023-02-04T12:07:20;100609.34;;;0.13;76.65
59315;BME280;46521;50.160;20.802;2023-02-04T12:17:24;100632.91;;;-0.07;76.29
59315;BME280;46521;50.160;20.802;2023-02-04T12:27:26;100638.02;;;-0.23;75.42
59315;BME280;46521;50.160;20.802;2023-02-04T12:37:27;100651.64;;;-0.55;75.10
59315;BME280;46521;50.160;20.802;2023-02-04T12:47:29;100662.67;;;-0.68;75.37
59315;BME280;46521;50.160;20.802;2023-02-04T12:57:31;100661.53;;;-0.63;75.29
59315;BME280;46521;50.160;20.802;2023-02-04T13:07:32;100665.96;;;-0.65;75.07
59315;BME280;46521;50.160;20.802;2023-02-04T13:17:34;100683.17;;;-0.62;74.84
59315;BME280;46521;50.160;20.802;2023-02-04T13:27:37;100713.94;;;-0.72;74.57
59315;BME280;46521;50.160;20.802;2023-02-04T13:37:38;100726.00;;;-0.71;73.97
59315;BME280;46521;50.160;20.802;2023-02-04T13:47:40;100743.89;;;-0.84;74.21
59315;BME280;46521;50.160;20.802;2023-02-04T13:57:41;100742.03;;;-1.01;74.89
59315;BME280;46521;50.160;20.802;2023-02-04T14:07:43;100754.77;;;-1.15;74.14
59315;BME280;46521;50.160;20.802;2023-02-04T14:17:44;100757.05;;;-1.28;74.55
59315;BME280;46521;50.160;20.802;2023-02-04T14:27:46;100771.13;;;-1.34;74.53
59315;BME280;46521;50.160;20.802;2023-02-04T14:37:47;100781.56;;;-1.35;74.67
59315;BME280;46521;50.160;20.802;2023-02-04T14:47:49;100810.30;;;-1.40;74.48
59315;BME280;46521;50.160;20.802;2023-02-04T14:57:53;100808.82;;;-1.46;73.44
59315;BME280;46521;50.160;20.802;2023-02-04T15:07:54;100838.56;;;-1.54;73.94
59315;BME280;46521;50.160;20.802;2023-02-04T15:17:56;100839.45;;;-1.55;74.49
59315;BME280;46521;50.160;20.802;2023-02-04T15:27:58;100864.03;;;-1.64;73.94
59315;BME280;46521;50.160;20.802;2023-02-04T15:37:59;100868.63;;;-1.71;73.98
59315;BME280;46521;50.160;20.802;2023-02-04T15:48:01;100890.33;;;-1.73;74.92
59315;BME280;46521;50.160;20.802;2023-02-04T15:58:02;100904.53;;;-1.84;74.48
59315;BME280;46521;50.160;20.802;2023-02-04T16:08:04;100910.81;;;-1.89;74.79
59315;BME280;46521;50.160;20.802;2023-02-04T16:18:05;100910.81;;;-1.89;75.73
59315;BME280;46521;50.160;20.802;2023-02-04T16:28:07;100917.67;;;-1.88;74.88
59315;BME280;46521;50.160;20.802;2023-02-04T16:38:08;100934.04;;;-2.10;75.97
59315;BME280;46521;50.160;20.802;2023-02-04T16:48:10;100926.00;;;-2.27;76.46
59315;BME280;46521;50.160;20.802;2023-02-04T16:58:12;100932.58;;;-2.42;76.02
59315;BME280;46521;50.160;20.802;2023-02-04T17:08:14;100933.00;;;-2.55;75.47
59315;BME280;46521;50.160;20.802;2023-02-04T17:18:17;100936.05;;;-2.68;75.78
59315;BME280;46521;50.160;20.802;2023-02-04T17:28:18;100955.20;;;-2.73;76.04
59315;BME280;46521;50.160;20.802;2023-02-04T17:38:20;100981.05;;;-2.71;76.14
59315;BME280;46521;50.160;20.802;2023-02-04T17:48:22;100986.17;;;-2.69;75.47
59315;BME280;46521;50.160;20.802;2023-02-04T17:58:25;100996.34;;;-2.63;76.22
59315;BME280;46521;50.160;20.802;2023-02-04T18:08:28;101006.27;;;-2.51;76.30
59315;BME280;46521;50.160;20.802;2023-02-04T18:18:37;101014.60;;;-2.41;76.37
59315;BME280;46521;50.160;20.802;2023-02-04T18:28:43;101035.23;;;-2.38;76.40
59315;BME280;46521;50.160;20.802;2023-02-04T18:38:45;101040.26;;;-2.33;76.62
59315;BME280;46521;50.160;20.802;2023-02-04T18:58:48;101052.50;;;-2.39;76.68
59315;BME280;46521;50.160;20.802;2023-02-04T19:08:51;101073.95;;;-2.33;75.78
59315;BME280;46521;50.160;20.802;2023-02-04T19:18:53;101072.14;;;-2.31;75.89
59315;BME280;46521;50.160;20.802;2023-02-04T19:28:55;101092.23;;;-2.38;75.85
59315;BME280;46521;50.160;20.802;2023-02-04T19:38:59;101077.13;;;-2.52;75.75
59315;BME280;46521;50.160;20.802;2023-02-04T19:49:30;101065.55;;;-2.68;75.83
59315;BME280;46521;50.160;20.802;2023-02-04T19:59:35;101094.50;;;-2.84;75.81
59315;BME280;46521;50.160;20.802;2023-02-04T20:09:36;101109.52;;;-2.95;75.52
59315;BME280;46521;50.160;20.802;2023-02-04T20:19:38;101101.84;;;-2.98;76.59
59315;BME280;46521;50.160;20.802;2023-02-04T20:29:41;101114.78;;;-2.98;76.30
59315;BME280;46521;50.160;20.802;2023-02-04T20:39:42;101133.77;;;-2.98;75.59
59315;BME280;46521;50.160;20.802;2023-02-04T20:50:24;101137.38;;;-3.03;75.57
59315;BME280;46521;50.160;20.802;2023-02-04T21:00:31;101141.76;;;-3.05;75.96
59315;BME280;46521;50.160;20.802;2023-02-04T21:10:35;101147.99;;;-3.13;75.72
59315;BME280;46521;50.160;20.802;2023-02-04T21:20:36;101146.67;;;-3.28;76.05
59315;BME280;46521;50.160;20.802;2023-02-04T21:30:37;101168.32;;;-3.30;76.56
59315;BME280;46521;50.160;20.802;2023-02-04T21:40:39;101172.78;;;-3.35;76.09
59315;BME280;46521;50.160;20.802;2023-02-04T21:50:41;101193.20;;;-3.26;76.21
59315;BME280;46521;50.160;20.802;2023-02-04T22:00:42;101184.48;;;-3.22;76.14
59315;BME280;46521;50.160;20.802;2023-02-04T22:10:44;101198.25;;;-3.21;76.43
59315;BME280;46521;50.160;20.802;2023-02-04T22:20:45;101213.06;;;-3.27;76.00
59315;BME280;46521;50.160;20.802;2023-02-04T22:30:47;101219.34;;;-3.35;76.06
59315;BME280;46521;50.160;20.802;2023-02-04T22:40:49;101221.03;;;-3.34;76.25
59315;BME280;46521;50.160;20.802;2023-02-04T22:50:50;101236.55;;;-3.34;76.16
59315;BME280;46521;50.160;20.802;2023-02-04T23:00:52;101246.86;;;-3.33;76.32
59315;BME280;46521;50.160;20.802;2023-02-04T23:10:53;101248.53;;;-3.30;76.26
59315;BME280;46521;50.160;20.802;2023-02-04T23:20:55;101254.58;;;-3.31;76.02
59315;BME280;46521;50.160;20.802;2023-02-04T23:30:56;101267.40;;;-3.27;76.41
59315;BME280;46521;50.160;20.802;2023-02-04T23:40:58;101273.41;;;-3.26;76.38
